LTAF/ADA METAR and TAF weather

Enter ICAO airport designator
Station Type Date Time Source
LTAF METAR 2019/08/18 08:20 UTC NOAA

LTAF 180820Z VRB03KT 9999 SCT035 32/22 Q1004 NOSIG


Station Type Date Time Source
LTAF Decoded METAR 2019/08/18 08:20 UTC NOAA

Station name not available
Aug 18, 2019 - 04:20 AM EDT / 2019.08.18 0820 UTC
Wind: Variable at 3 MPH (3 KT):0
Visibility: greater than 7 mile(s):0
Sky conditions: partly cloudy
Temperature: 89 F (32 C)
Heat index: 95.0 F (35.0 C):1
Dew Point: 71 F (22 C)
Relative Humidity: 55%
Pressure (altimeter): 29.65 in. Hg (1004 hPa)
ob: LTAF 180820Z VRB03KT 9999 SCT035 32/22 Q1004 NOSIG
cycle: 8

Station Type Date Time Source
LTAF TAF 2019/08/18 06:01 UTC NOAA

TAF LTAF 180440Z 1806/1906 VRB02KT 9999 SCT035
TEMPO 1807/1809 -SHRA
BECMG 1808/1810 21012KT PROB40
TEMPO 1811/1815 -TSRA FEW025CB BKN030
BECMG 1815/1817 VRB02KT

Example: see airport list